Terminal Aerodrome Forecast
Issued by NWS Charleston, WV

Current Version | Previous Version | Graphics & Text | Print | Product List | Glossary On
Versions: 1 2 3 4 5 6 7 8 9 10 11 12 13 14 15 16 17 18 19 20 21 22 23 24 25 26
816
FTUS41 KRLX 092355
TAFHTS
TAF
KHTS 092355Z 1000/1024 26010KT 3SM -SHSN BR OVC015
      TEMPO 1000/1001 6SM -SHSN OVC025
     FM100100 26011G17KT P6SM OVC025
     FM100200 26011G17KT P6SM OVC025
     FM101200 25009KT P6SM BKN035
     FM101700 23011G17KT P6SM SCT080
     FM102100 22009KT P6SM BKN080=

USA.gov is the U.S. government's official web portal to all federal, state and local government web resources and services.